Flint, United Kingdom
Current Conditions -  °F | °C
As of 12:20 PM on Monday 26 Jan 2015 (Local Time) from EGNR Reporting Station
Few Clouds Few Clouds  
Wind Chill: 39°   Ceiling: Unl
Heat Index: 46°   Visibility: 6mi
Dew Point: 39°   Wind: 18mph
Humidity: 76%   Direction: 290°WNW
Pressure: 30.24"   Gusts: NA
Location:  53.24°N, 3.13°W
Report Text: EGNR 261220Z 29016KT 9999 FEW023 08/04 Q1024
Loading
Personal Weather Stations






























Interactive Weather Map New forecast layout! Learn more

10-Day Weather Forecast

Advertisements
Track Severe Weather on mobile